This is the latest recevied weather packets stored in our database for station/object HB9BTL-13. If no packets are shown the sender has not sent any weather packets the latest 10 day(s).
| Time | Temp. | Humidity | Pressure | Rain* | Wind** | Luminosity | Snow |
|---|---|---|---|---|---|---|---|
| 1787530646 | 20° C | 54% | 1020 hPa | - | - | - | - |
| 1787529740 | 20° C | 54% | 1019.9 hPa | - | - | - | - |
| 1787528835 | 20° C | 55% | 1020.1 hPa | - | - | - | - |
| 1787527929 | 20.56° C | 55% | 1020.1 hPa | - | - | - | - |
| 1787527024 | 20.56° C | 56% | 1020.3 hPa | - | - | - | - |
| 1787526118 | 20.56° C | 56% | 1020.4 hPa | - | - | - | - |
| 1787525213 | 20.56° C | 56% | 1020.5 hPa | - | - | - | - |
| 1787524308 | 20.56° C | 56% | 1020.4 hPa | - | - | - | - |
| 1787523402 | 21.11° C | 55% | 1020.4 hPa | - | - | - | - |
| 1787522497 | 21.11° C | 56% | 1020.5 hPa | - | - | - | - |
| 1787521591 | 21.11° C | 57% | 1020.5 hPa | - | - | - | - |
| 1787520686 | 19.44° C | 67% | 1020.3 hPa | - | - | - | - |
| 1787519781 | 20.56° C | 60% | 1020.3 hPa | - | - | - | - |
| 1787518876 | 20° C | 66% | 1020.4 hPa | - | - | - | - |
| 1787517970 | 20° C | 64% | 1020.4 hPa | - | - | - | - |
| 1787517065 | 20° C | 64% | 1020.4 hPa | - | - | - | - |
| 1787516159 | 20.56° C | 63% | 1020.5 hPa | - | - | - | - |
| 1787515254 | 21.11° C | 59% | 1020.4 hPa | - | - | - | - |
| 1787514349 | 21.67° C | 57% | 1020.4 hPa | - | - | - | - |
| 1787513443 | 22.22° C | 55% | 1020.4 hPa | - | - | - | - |
| 1787512538 | 22.22° C | 54% | 1020.4 hPa | - | - | - | - |
| 1787511632 | 22.22° C | 52% | 1020.3 hPa | - | - | - | - |
| 1787510727 | 22.78° C | 53% | 1020.2 hPa | - | - | - | - |
| 1787509821 | 22.78° C | 51% | 1020.1 hPa | - | - | - | - |
| 1787508916 | 23.33° C | 51% | 1020 hPa | - | - | - | - |
* Rain since midnight (hover to see other rain measurements)
** Current wind speed in m/s (hover to see current wind gust speed)